Time;durP1;ratioP1;P1;durP2;ratioP2;P2;SDS_P1;SDS_P2;PMS_P1;PMS_P2;Temp;Humidity;BMP_temperature;BMP_pressure;BME280_temperature;BME280_humidity;BME280_pressure;Samples;Min_cycle;Max_cycle;Signal;HPM_P1;HPM_P2
2023/06/18 00:02:12;;;;;;;8.60;6.40;;;;;;;24.76;51.92;99987.63;5090930;28;20171;-61
2023/06/18 00:04:38;;;;;;;9.80;6.67;;;;;;;24.75;51.54;99986.84;5081706;28;20183;-61
2023/06/18 00:07:03;;;;;;;7.60;6.37;;;;;;;24.75;51.79;99983.13;5070161;28;20255;-61
2023/06/18 00:09:29;;;;;;;8.00;6.67;;;;;;;24.74;51.79;99984.38;5074886;28;20206;-61
2023/06/18 00:11:54;;;;;;;7.40;5.93;;;;;;;24.75;51.58;99986.00;5089127;28;20179;-62
2023/06/18 00:14:20;;;;;;;9.20;6.20;;;;;;;24.74;51.75;99987.25;5090043;28;20216;-61
2023/06/18 00:16:45;;;;;;;8.27;6.40;;;;;;;24.74;51.76;99987.25;5079057;28;20260;-61
2023/06/18 00:19:11;;;;;;;8.30;6.23;;;;;;;24.74;51.75;99975.72;5052532;28;20201;-61
2023/06/18 00:21:37;;;;;;;8.77;6.70;;;;;;;24.73;51.38;99980.66;5076380;28;20195;-61
2023/06/18 00:24:03;;;;;;;9.10;6.77;;;;;;;24.72;51.42;99972.41;5070063;28;20156;-62
2023/06/18 00:26:28;;;;;;;7.83;6.20;;;;;;;24.71;51.76;99971.63;5088934;28;20464;-62
2023/06/18 00:28:54;;;;;;;8.10;6.97;;;;;;;24.71;51.83;99983.16;5086848;28;20424;-62
2023/06/18 00:31:19;;;;;;;9.20;6.90;;;;;;;24.73;51.46;99971.19;5088740;28;20154;-62
2023/06/18 00:33:45;;;;;;;8.27;6.10;;;;;;;24.71;51.57;99974.50;5081445;28;20225;-61
2023/06/18 00:36:12;;;;;;;8.00;6.70;;;;;;;24.72;51.70;99969.53;5069108;28;20155;-61
2023/06/18 00:38:45;;;;;;;7.90;6.00;;;;;;;24.71;51.53;99962.97;5069198;28;20277;-61
2023/06/18 00:41:11;;;;;;;8.10;6.47;;;;;;;24.70;51.42;99958.44;5052739;28;20420;-61
2023/06/18 00:43:37;;;;;;;8.90;6.80;;;;;;;24.70;51.78;99961.31;5085332;28;20432;-62
2023/06/18 00:46:03;;;;;;;6.83;6.13;;;;;;;24.70;51.53;99963.38;5075275;28;20650;-61
2023/06/18 00:48:31;;;;;;;8.20;6.50;;;;;;;24.69;51.77;99962.56;5083226;28;20417;-61
2023/06/18 00:50:56;;;;;;;9.17;6.80;;;;;;;24.69;51.65;99962.56;5068443;28;20466;-61
2023/06/18 00:53:22;;;;;;;8.00;6.23;;;;;;;24.68;51.85;99960.91;5071732;28;20392;-62
2023/06/18 00:55:48;;;;;;;9.00;6.30;;;;;;;24.67;51.92;99962.19;5090219;28;20702;-62
2023/06/18 00:58:13;;;;;;;8.50;6.23;;;;;;;24.68;51.81;99963.00;5080259;28;20223;-61
2023/06/18 01:00:40;;;;;;;7.30;6.50;;;;;;;24.68;51.76;99968.78;5087720;28;20207;-61
2023/06/18 01:03:07;;;;;;;8.73;6.83;;;;;;;24.67;51.79;99959.28;5069508;28;20963;-62
2023/06/18 01:05:33;;;;;;;7.70;6.50;;;;;;;24.66;51.88;99962.59;5036173;28;20955;-61
2023/06/18 01:07:59;;;;;;;7.37;6.00;;;;;;;24.67;51.88;99964.22;5069901;28;20421;-61
2023/06/18 01:10:28;;;;;;;8.00;6.53;;;;;;;24.65;51.72;99961.81;5051027;28;20165;-62
2023/06/18 01:12:57;;;;;;;7.87;6.57;;;;;;;24.66;51.64;99968.38;5068829;28;20428;-62
2023/06/18 01:15:26;;;;;;;8.27;6.13;;;;;;;24.66;51.53;99962.59;5065055;28;21010;-62
2023/06/18 01:17:53;;;;;;;8.00;6.77;;;;;;;24.65;51.87;99970.47;5068010;28;20413;-62
2023/06/18 01:20:19;;;;;;;8.83;7.07;;;;;;;24.65;51.50;99963.84;5069596;28;20476;-62
2023/06/18 01:22:46;;;;;;;9.33;7.30;;;;;;;24.64;51.76;99968.00;5066562;28;20933;-62
2023/06/18 01:25:13;;;;;;;7.73;6.37;;;;;;;24.64;51.66;99963.03;5068903;28;20197;-62
2023/06/18 01:27:41;;;;;;;9.57;7.50;;;;;;;24.64;51.73;99962.22;5033421;28;20994;-62
2023/06/18 01:30:11;;;;;;;7.90;5.97;;;;;;;24.63;51.31;99957.72;5048757;28;20428;-62
2023/06/18 01:32:36;;;;;;;8.17;6.53;;;;;;;24.63;51.93;99952.72;5088073;28;20859;-62
2023/06/18 01:35:03;;;;;;;8.40;6.70;;;;;;;24.63;51.55;99951.94;5075879;28;20436;-62
2023/06/18 01:38:00;;;;;;;8.57;7.33;;;;;;;24.62;52.00;99951.09;5075320;28;20175;-62
2023/06/18 01:40:57;;;;;;;7.93;5.90;;;;;;;24.62;51.99;99959.75;5056181;28;20448;-62
2023/06/18 01:43:40;;;;;;;9.67;7.10;;;;;;;24.61;52.01;99961.03;5076399;28;20449;-62
2023/06/18 01:46:10;;;;;;;8.97;6.90;;;;;;;24.61;51.85;99966.78;5056057;28;20441;-62
2023/06/18 01:48:38;;;;;;;7.90;6.93;;;;;;;24.61;51.85;99963.91;5051397;28;20408;-61
2023/06/18 01:51:04;;;;;;;7.13;6.40;;;;;;;24.60;51.86;99965.16;5034616;28;20417;-61
2023/06/18 01:53:29;;;;;;;9.33;6.30;;;;;;;24.61;51.84;99958.13;5069357;28;20422;-62
2023/06/18 01:55:56;;;;;;;8.50;6.57;;;;;;;24.60;51.91;99959.38;5049757;28;20435;-61
2023/06/18 01:58:22;;;;;;;7.40;5.73;;;;;;;24.61;52.09;99960.19;5074758;28;20229;-61
2023/06/18 02:00:48;;;;;;;8.00;6.47;;;;;;;24.59;52.15;99969.28;5074724;28;20479;-62
2023/06/18 02:03:14;;;;;;;8.93;5.73;;;;;;;24.59;51.75;99971.34;5088441;28;20197;-62
2023/06/18 02:05:39;;;;;;;7.83;7.03;;;;;;;24.59;51.50;99957.72;5074959;28;20804;-62
2023/06/18 02:08:05;;;;;;;8.27;6.90;;;;;;;24.59;51.77;99954.84;5072582;28;20547;-62
2023/06/18 02:10:30;;;;;;;9.73;6.90;;;;;;;24.58;51.49;99950.31;5072693;28;20613;-62
2023/06/18 02:12:56;;;;;;;13.70;8.33;;;;;;;24.58;51.61;99967.63;5072703;28;20175;-62
2023/06/18 02:15:21;;;;;;;11.33;7.00;;;;;;;24.59;51.55;99968.47;5082083;28;20182;-62
2023/06/18 02:17:46;;;;;;;15.43;7.60;;;;;;;24.57;51.75;99974.63;5093140;28;20182;-62
2023/06/18 02:20:12;;;;;;;14.87;6.77;;;;;;;24.57;51.68;99974.63;5092927;28;20202;-62
2023/06/18 02:22:38;;;;;;;12.60;6.53;;;;;;;24.57;51.77;99980.41;5074008;28;20174;-62
2023/06/18 02:25:04;;;;;;;13.03;7.80;;;;;;;24.56;51.71;99981.66;5075418;28;20233;-62
2023/06/18 02:27:30;;;;;;;14.83;6.53;;;;;;;24.57;51.54;99983.28;5072458;28;20185;-62
2023/06/18 02:29:55;;;;;;;17.80;7.27;;;;;;;24.57;51.86;99976.69;5089631;28;20864;-62
2023/06/18 02:32:21;;;;;;;12.03;6.73;;;;;;;24.56;51.95;99975.88;5091671;28;20247;-62
2023/06/18 02:34:46;;;;;;;20.90;6.53;;;;;;;24.55;51.65;99971.38;5089235;28;20212;-62
2023/06/18 02:37:12;;;;;;;10.93;7.60;;;;;;;24.55;51.72;99980.03;5090934;28;20227;-62
2023/06/18 02:39:37;;;;;;;12.10;7.00;;;;;;;24.54;51.89;99972.59;5089581;28;20318;-62
2023/06/18 02:42:03;;;;;;;13.07;6.70;;;;;;;24.55;51.91;99973.44;5089060;28;20691;-62
2023/06/18 02:44:31;;;;;;;11.47;7.60;;;;;;;24.54;51.97;99969.72;5085572;28;20285;-62
2023/06/18 02:46:56;;;;;;;12.00;6.90;;;;;;;24.55;51.54;99970.53;5071191;28;20181;-62
2023/06/18 02:49:22;;;;;;;15.00;7.50;;;;;;;24.53;51.90;99968.06;5085060;28;20424;-62
2023/06/18 02:51:47;;;;;;;14.43;6.90;;;;;;;24.54;51.83;99971.78;5092032;28;20242;-62
2023/06/18 02:54:13;;;;;;;11.57;7.00;;;;;;;24.53;51.67;99965.19;5082039;28;20235;-62
2023/06/18 02:56:38;;;;;;;15.27;7.00;;;;;;;24.53;51.88;99964.41;5071978;28;20186;-62
2023/06/18 02:59:04;;;;;;;12.53;6.93;;;;;;;24.52;51.64;99963.56;5073915;28;20222;-62
2023/06/18 03:01:31;;;;;;;12.90;7.10;;;;;;;24.51;51.88;99964.81;5074736;28;20198;-62
2023/06/18 03:03:57;;;;;;;10.50;6.73;;;;;;;24.52;51.81;99960.69;5079729;28;20187;-62
2023/06/18 03:06:23;;;;;;;11.00;6.83;;;;;;;24.51;51.62;99964.81;5076286;28;20858;-62
2023/06/18 03:08:48;;;;;;;17.27;7.83;;;;;;;24.50;51.75;99963.19;5091111;28;20178;-62
2023/06/18 03:11:14;;;;;;;9.43;7.20;;;;;;;24.51;51.69;99969.75;5091982;28;20178;-62
2023/06/18 03:13:39;;;;;;;12.87;6.50;;;;;;;24.51;51.88;99972.66;5091847;28;20634;-62
2023/06/18 03:16:05;;;;;;;10.60;7.27;;;;;;;24.51;51.75;99966.88;5091690;28;20181;-62
2023/06/18 03:18:31;;;;;;;11.60;7.63;;;;;;;24.49;51.76;99970.19;5091823;28;20174;-62
2023/06/18 03:20:56;;;;;;;10.90;7.13;;;;;;;24.50;51.67;99979.66;5073567;28;20618;-62
2023/06/18 03:23:22;;;;;;;10.73;7.03;;;;;;;24.49;51.50;99969.38;5091309;28;20178;-62
2023/06/18 03:25:47;;;;;;;8.50;6.17;;;;;;;24.49;51.72;99972.25;5091511;28;20209;-62
2023/06/18 03:28:13;;;;;;;9.97;6.60;;;;;;;24.48;51.58;99974.31;5091456;28;20181;-62
2023/06/18 03:30:38;;;;;;;10.50;6.70;;;;;;;24.47;51.46;99978.47;5091406;28;20186;-62
2023/06/18 03:33:04;;;;;;;9.90;6.57;;;;;;;24.48;51.59;99982.19;5089389;28;20170;-62
2023/06/18 03:35:30;;;;;;;16.40;7.23;;;;;;;24.47;51.57;99975.56;5088675;28;20254;-62
2023/06/18 03:37:55;;;;;;;10.77;6.57;;;;;;;24.47;51.59;99989.19;5088032;28;20590;-62
2023/06/18 03:40:21;;;;;;;9.77;7.40;;;;;;;24.46;51.49;99982.59;5071512;28;20206;-62
2023/06/18 03:42:46;;;;;;;9.17;6.40;;;;;;;24.46;51.72;99994.16;5090682;28;20185;-62
2023/06/18 03:45:12;;;;;;;10.67;8.17;;;;;;;24.46;51.76;99991.25;5083466;28;20233;-62
2023/06/18 03:47:37;;;;;;;10.10;6.53;;;;;;;24.46;51.41;99987.53;5070360;28;20179;-62
2023/06/18 03:50:03;;;;;;;12.77;7.27;;;;;;;24.45;51.38;99991.69;5052264;28;20696;-62
2023/06/18 03:52:28;;;;;;;12.43;7.20;;;;;;;24.44;51.55;99993.75;5083003;28;20175;-62
2023/06/18 03:54:54;;;;;;;10.13;6.67;;;;;;;24.43;51.45;99980.56;5090961;28;20174;-62
2023/06/18 03:57:20;;;;;;;10.30;6.90;;;;;;;24.44;50.97;99995.81;5079840;28;20187;-62
2023/06/18 03:59:46;;;;;;;9.80;7.03;;;;;;;24.44;51.56;99990.06;5068312;28;20507;-62
2023/06/18 04:02:12;;;;;;;7.93;6.27;;;;;;;24.43;51.55;99989.22;5050854;28;20582;-62
2023/06/18 04:04:38;;;;;;;10.07;7.20;;;;;;;24.43;51.63;99988.41;5052058;28;20178;-62
2023/06/18 04:07:04;;;;;;;10.40;7.57;;;;;;;24.42;51.50;99993.34;5048570;28;20926;-62
2023/06/18 04:09:29;;;;;;;9.60;6.90;;;;;;;24.43;51.56;99995.00;5052659;28;20179;-62
2023/06/18 04:11:55;;;;;;;9.37;6.77;;;;;;;24.42;51.59;99987.59;5050074;28;20172;-62
2023/06/18 04:14:20;;;;;;;10.53;7.40;;;;;;;24.43;51.53;99992.09;5051133;28;20171;-62
2023/06/18 04:16:46;;;;;;;12.60;6.23;;;;;;;24.41;51.51;99997.50;5068093;28;20670;-62
2023/06/18 04:19:11;;;;;;;11.90;6.40;;;;;;;24.42;51.61;99993.34;5070104;28;20237;-62
2023/06/18 04:21:38;;;;;;;8.97;6.73;;;;;;;24.40;51.68;99995.88;5070057;28;20182;-61
2023/06/18 04:24:04;;;;;;;9.90;6.50;;;;;;;24.41;51.69;99994.63;5066290;28;20179;-61
2023/06/18 04:26:30;;;;;;;8.43;6.43;;;;;;;24.40;51.41;99989.25;5058630;28;20425;-61
2023/06/18 04:28:55;;;;;;;8.77;6.87;;;;;;;24.41;51.63;99988.84;5069559;28;20878;-61
2023/06/18 04:31:21;;;;;;;8.83;6.47;;;;;;;24.40;51.65;99990.09;5052183;28;20179;-61
2023/06/18 04:33:46;;;;;;;11.00;6.60;;;;;;;24.40;51.59;99987.22;5053765;28;20190;-61
2023/06/18 04:36:12;;;;;;;9.03;6.57;;;;;;;24.40;51.53;99984.31;5063453;28;20188;-61
2023/06/18 04:38:38;;;;;;;9.10;6.20;;;;;;;24.40;51.69;99977.72;5048737;28;20942;-61
2023/06/18 04:41:03;;;;;;;7.23;6.10;;;;;;;24.40;51.49;99975.66;5059304;28;20425;-61
2023/06/18 04:43:29;;;;;;;9.50;6.73;;;;;;;24.42;51.58;99978.09;5065695;28;20182;-61
2023/06/18 04:45:54;;;;;;;9.00;6.60;;;;;;;24.42;51.46;99978.09;5070144;28;20182;-61
2023/06/18 04:48:19;;;;;;;10.43;6.90;;;;;;;24.42;51.54;99964.50;5066339;28;20715;-61
2023/06/18 04:50:45;;;;;;;9.33;6.20;;;;;;;24.44;51.47;99969.84;5069730;28;20174;-61
2023/06/18 04:53:10;;;;;;;8.50;6.97;;;;;;;24.44;51.66;99972.72;5068130;28;20168;-61
2023/06/18 04:55:37;;;;;;;8.33;6.30;;;;;;;24.44;51.41;99969.84;5065320;28;20187;-61
2023/06/18 04:58:04;;;;;;;8.50;7.00;;;;;;;24.44;51.57;99961.19;5085617;28;20764;-61
2023/06/18 05:00:29;;;;;;;8.10;6.30;;;;;;;24.44;51.74;99964.06;5061699;28;20823;-61
2023/06/18 05:02:57;;;;;;;9.97;7.20;;;;;;;24.44;51.76;99962.00;5068701;28;20405;-62
2023/06/18 05:05:23;;;;;;;9.23;6.67;;;;;;;24.45;51.62;99959.94;5069164;28;20175;-62
2023/06/18 05:07:48;;;;;;;10.07;7.13;;;;;;;24.46;51.61;99956.63;5070766;28;20445;-62
2023/06/18 05:10:13;;;;;;;6.80;5.53;;;;;;;24.44;51.59;99959.09;5067463;28;20178;-62
2023/06/18 05:12:39;;;;;;;10.80;7.00;;;;;;;24.46;51.65;99967.34;5078930;28;20178;-62
2023/06/18 05:15:06;;;;;;;9.23;7.00;;;;;;;24.46;51.61;99962.41;5055759;28;20182;-62
2023/06/18 05:17:31;;;;;;;11.70;7.03;;;;;;;24.48;51.65;99962.78;5071904;28;20731;-62
2023/06/18 05:19:56;;;;;;;10.27;6.80;;;;;;;24.48;51.54;99962.78;5089400;28;20448;-62
2023/06/18 05:22:22;;;;;;;10.60;6.63;;;;;;;24.49;51.98;99963.59;5068291;28;20182;-62
2023/06/18 05:24:47;;;;;;;10.77;7.37;;;;;;;24.49;52.25;99967.28;5089764;28;20170;-62
2023/06/18 05:27:13;;;;;;;8.73;7.10;;;;;;;24.49;51.98;99967.28;5082471;28;20227;-62
2023/06/18 05:29:38;;;;;;;9.17;6.40;;;;;;;24.49;51.96;99973.06;5087112;28;20811;-62
2023/06/18 05:32:04;;;;;;;8.30;6.83;;;;;;;24.49;52.23;99978.84;5088878;28;20691;-62
2023/06/18 05:34:30;;;;;;;9.20;7.20;;;;;;;24.47;52.10;99972.69;5071366;28;20183;-61
2023/06/18 05:36:55;;;;;;;8.37;6.43;;;;;;;24.46;52.10;99971.06;5068179;28;20437;-61
2023/06/18 05:39:21;;;;;;;9.30;7.10;;;;;;;24.45;52.09;99980.97;5069995;28;20607;-61
2023/06/18 05:41:48;;;;;;;10.43;6.80;;;;;;;24.45;52.17;99978.09;5068806;28;20167;-61
2023/06/18 05:44:13;;;;;;;8.10;7.00;;;;;;;24.44;52.29;99985.06;5088257;28;20670;-61
2023/06/18 05:46:39;;;;;;;7.30;6.37;;;;;;;24.46;51.94;99984.66;5088307;28;20530;-61
2023/06/18 05:49:04;;;;;;;7.17;6.10;;;;;;;24.47;52.23;99981.34;5076507;28;20182;-61
2023/06/18 05:51:30;;;;;;;10.60;6.90;;;;;;;24.46;52.24;99976.84;5075527;28;20189;-61
2023/06/18 05:53:55;;;;;;;8.83;6.60;;;;;;;24.46;52.34;99982.59;5085196;28;20252;-61
2023/06/18 05:56:21;;;;;;;12.70;7.50;;;;;;;24.46;52.19;99976.00;5068925;28;20174;-62
2023/06/18 05:58:46;;;;;;;9.47;6.87;;;;;;;24.45;52.27;99980.97;5068908;28;20306;-61
2023/06/18 06:01:11;;;;;;;9.63;6.73;;;;;;;24.47;52.28;99986.28;5071441;28;20666;-61
2023/06/18 06:03:37;;;;;;;7.87;6.37;;;;;;;24.47;52.17;99990.00;5069100;28;20529;-61
2023/06/18 06:06:02;;;;;;;12.10;6.43;;;;;;;24.48;52.16;99991.63;5071457;28;20702;-61
2023/06/18 06:08:28;;;;;;;8.27;7.20;;;;;;;24.50;52.23;99989.16;5058765;28;20170;-61
2023/06/18 06:10:53;;;;;;;8.40;6.97;;;;;;;24.51;52.40;99990.78;5089286;28;20166;-61
2023/06/18 06:13:19;;;;;;;8.97;6.67;;;;;;;24.52;52.38;99998.19;5089574;28;20163;-61
2023/06/18 06:15:44;;;;;;;8.67;6.53;;;;;;;24.50;52.37;99989.16;5080205;28;20221;-61
2023/06/18 06:18:10;;;;;;;11.50;7.00;;;;;;;24.50;52.41;99989.16;5069098;28;20152;-61
2023/06/18 06:20:35;;;;;;;10.03;7.63;;;;;;;24.50;52.41;99992.06;5079944;28;20903;-61
2023/06/18 06:23:01;;;;;;;8.30;6.70;;;;;;;24.49;52.55;99989.59;5069801;28;20654;-62
2023/06/18 06:25:26;;;;;;;8.40;6.60;;;;;;;24.47;52.38;99990.00;5068775;28;20175;-62
2023/06/18 06:27:51;;;;;;;9.27;6.80;;;;;;;24.46;52.50;99987.53;5071401;28;20190;-62
2023/06/18 06:30:17;;;;;;;9.40;6.50;;;;;;;24.45;52.58;99992.50;5068661;28;20174;-61
2023/06/18 06:32:42;;;;;;;9.33;6.80;;;;;;;24.44;52.61;99999.50;5071210;28;20182;-61
2023/06/18 06:35:08;;;;;;;7.80;6.80;;;;;;;24.45;52.68;99991.69;5068610;28;20182;-61
2023/06/18 06:37:33;;;;;;;7.30;6.40;;;;;;;24.45;52.73;100003.22;5050860;28;20236;-61
2023/06/18 06:39:59;;;;;;;8.30;6.20;;;;;;;24.45;52.81;100009.00;5075029;28;20190;-61
2023/06/18 06:42:24;;;;;;;8.10;7.23;;;;;;;24.43;52.76;100012.31;5088570;28;20185;-61
2023/06/18 06:44:50;;;;;;;9.27;6.80;;;;;;;24.45;53.00;100014.78;5091607;28;20181;-61
2023/06/18 06:47:16;;;;;;;11.33;7.73;;;;;;;24.45;52.78;100015.59;5090511;28;20562;-61
2023/06/18 06:49:41;;;;;;;8.17;6.87;;;;;;;24.45;53.30;100018.50;5056882;28;20648;-61
2023/06/18 06:52:07;;;;;;;8.90;7.47;;;;;;;24.45;52.92;100015.59;5082077;28;20416;-61
2023/06/18 06:54:32;;;;;;;8.40;6.67;;;;;;;24.46;53.09;100013.53;5087323;28;20209;-61
2023/06/18 06:56:58;;;;;;;7.97;6.67;;;;;;;24.43;52.72;100018.09;5091843;28;20709;-61
2023/06/18 06:59:23;;;;;;;9.53;7.40;;;;;;;24.43;53.00;100023.84;5089402;28;20233;-61
2023/06/18 07:01:49;;;;;;;8.90;7.30;;;;;;;24.45;53.11;100020.53;5073745;28;20190;-62
2023/06/18 07:04:14;;;;;;;9.87;7.13;;;;;;;24.45;53.23;100014.78;5053841;28;20541;-62
2023/06/18 07:06:40;;;;;;;10.90;7.27;;;;;;;24.45;53.23;100015.59;5075089;28;20199;-62
2023/06/18 07:09:06;;;;;;;9.10;7.07;;;;;;;24.46;53.22;100020.13;5053771;28;20167;-62
2023/06/18 07:11:33;;;;;;;9.00;6.83;;;;;;;24.45;53.18;100012.72;5073652;28;20265;-62
2023/06/18 07:13:59;;;;;;;9.53;6.70;;;;;;;24.45;53.22;100015.59;5090236;28;20433;-62
2023/06/18 07:16:24;;;;;;;8.60;7.20;;;;;;;24.44;53.23;100016.81;5088071;28;21019;-62
2023/06/18 07:18:50;;;;;;;8.20;7.23;;;;;;;24.43;53.13;100015.19;5091094;28;20508;-62
2023/06/18 07:21:16;;;;;;;8.13;7.20;;;;;;;24.43;53.41;100015.19;5083621;28;20186;-62
2023/06/18 07:23:41;;;;;;;14.03;7.60;;;;;;;24.41;53.81;100011.94;5070707;28;20171;-62
2023/06/18 07:26:07;;;;;;;9.63;7.60;;;;;;;24.41;53.22;100009.03;5069018;28;20936;-62
2023/06/18 07:28:32;;;;;;;9.33;6.90;;;;;;;24.42;53.22;100015.63;5087813;28;20190;-62
2023/06/18 07:30:58;;;;;;;9.10;7.50;;;;;;;24.42;52.81;100022.22;5091264;28;20181;-62
2023/06/18 07:33:23;;;;;;;8.13;6.97;;;;;;;24.43;53.09;100014.41;5083475;28;20183;-62
2023/06/18 07:35:48;;;;;;;11.10;7.60;;;;;;;24.43;53.18;100018.09;5071321;28;20155;-62
2023/06/18 07:38:14;;;;;;;10.33;6.43;;;;;;;24.43;53.09;100020.16;5071612;28;20189;-62
2023/06/18 07:40:39;;;;;;;9.63;6.43;;;;;;;24.43;53.01;100025.94;5089225;28;20194;-62
2023/06/18 07:43:05;;;;;;;10.57;7.33;;;;;;;24.42;53.07;100028.00;5091159;28;20174;-62
2023/06/18 07:45:30;;;;;;;9.67;7.00;;;;;;;24.41;52.95;100017.69;5081597;28;20194;-62
2023/06/18 07:47:56;;;;;;;8.93;7.50;;;;;;;24.40;53.19;100021.00;5071046;28;20167;-62
2023/06/18 07:50:22;;;;;;;8.93;7.57;;;;;;;24.41;52.99;100026.38;5071208;28;20234;-62
2023/06/18 07:52:47;;;;;;;10.40;7.33;;;;;;;24.41;52.98;100016.88;5090610;28;20190;-62
2023/06/18 07:55:13;;;;;;;9.57;7.57;;;;;;;24.41;52.94;100019.75;5090581;28;20165;-62
2023/06/18 07:57:38;;;;;;;10.23;7.23;;;;;;;24.40;52.84;100030.50;5080589;28;20179;-62
2023/06/18 08:00:05;;;;;;;10.17;7.90;;;;;;;24.40;52.86;100021.84;5069740;28;20229;-62
2023/06/18 08:02:30;;;;;;;10.47;7.10;;;;;;;24.38;52.78;100021.44;5086421;28;20216;-62
2023/06/18 08:04:56;;;;;;;7.77;6.50;;;;;;;24.40;53.02;100016.06;5090088;28;20460;-62
2023/06/18 08:07:21;;;;;;;11.77;7.60;;;;;;;24.39;52.84;100014.41;5086287;28;20885;-62
2023/06/18 08:09:46;;;;;;;9.07;7.10;;;;;;;24.39;53.08;100013.59;5089747;28;20170;-62
2023/06/18 08:12:12;;;;;;;12.33;7.27;;;;;;;24.39;52.89;100005.75;5089605;28;20181;-62
2023/06/18 08:14:37;;;;;;;9.40;7.47;;;;;;;24.40;52.49;100003.69;5090169;28;20178;-62
2023/06/18 08:17:03;;;;;;;9.53;7.67;;;;;;;24.39;52.83;99997.09;5078700;28;20186;-62
2023/06/18 08:19:28;;;;;;;9.10;7.23;;;;;;;24.40;52.75;99989.25;5069755;28;20203;-62
2023/06/18 08:21:54;;;;;;;10.50;7.83;;;;;;;24.41;52.74;99990.91;5080241;28;20186;-62
2023/06/18 08:24:19;;;;;;;12.70;7.60;;;;;;;24.39;52.80;100002.88;5089808;28;20173;-62
2023/06/18 08:26:45;;;;;;;8.33;7.50;;;;;;;24.39;52.52;99997.09;5075294;28;20253;-62
2023/06/18 08:29:10;;;;;;;8.50;7.07;;;;;;;24.40;52.69;99986.38;5089577;28;20163;-62
2023/06/18 08:31:40;;;;;;;10.90;7.90;;;;;;;24.40;52.47;99987.22;5089473;28;20171;-62
2023/06/18 08:34:06;;;;;;;8.13;6.93;;;;;;;24.40;52.50;99983.50;5088091;28;20190;-62
2023/06/18 08:36:31;;;;;;;10.10;8.30;;;;;;;24.41;52.50;99980.19;5071725;28;20511;-62
2023/06/18 08:38:57;;;;;;;10.73;7.23;;;;;;;24.40;52.36;99975.66;5078381;28;20174;-62
2023/06/18 08:41:22;;;;;;;8.13;6.43;;;;;;;24.40;52.31;99984.31;5073059;28;20187;-62
2023/06/18 08:43:48;;;;;;;9.13;7.43;;;;;;;24.40;52.19;99972.78;5084708;28;20185;-62
2023/06/18 08:46:14;;;;;;;10.60;8.00;;;;;;;24.40;52.54;99977.72;5082330;28;20174;-62
2023/06/18 08:48:59;;;;;;;8.37;7.40;;;;;;;24.41;52.30;99974.41;5069266;28;20624;-62
2023/06/18 08:51:24;;;;;;;9.50;7.93;;;;;;;24.41;51.84;99977.28;5073314;28;20485;-62
2023/06/18 08:53:51;;;;;;;9.50;7.67;;;;;;;24.41;51.97;99970.69;5070641;28;20421;-62
2023/06/18 08:56:19;;;;;;;9.57;7.27;;;;;;;24.40;51.94;99967.00;5050821;28;20232;-62
2023/06/18 08:58:55;;;;;;;12.70;7.87;;;;;;;24.40;51.84;99975.66;5071338;28;20878;-62
2023/06/18 09:01:21;;;;;;;9.27;7.97;;;;;;;24.41;51.93;99962.03;5068776;28;20417;-62
2023/06/18 09:03:47;;;;;;;10.83;7.53;;;;;;;24.41;51.78;99968.63;5050706;28;20417;-62
2023/06/18 09:06:12;;;;;;;10.57;7.77;;;;;;;24.41;51.43;99962.03;5033218;28;20197;-62
2023/06/18 09:08:38;;;;;;;9.33;7.57;;;;;;;24.42;51.37;99966.56;5080834;28;20182;-62
2023/06/18 09:11:04;;;;;;;11.07;7.93;;;;;;;24.43;50.93;99960.34;5068898;28;20178;-62
2023/06/18 09:13:29;;;;;;;9.30;7.43;;;;;;;24.42;51.02;99955.84;5071515;28;20248;-62
2023/06/18 09:15:55;;;;;;;10.27;8.07;;;;;;;24.42;50.96;99952.97;5073519;28;20801;-62
2023/06/18 09:18:22;;;;;;;11.17;7.40;;;;;;;24.42;51.24;99952.13;5070891;28;20189;-62
2023/06/18 09:20:48;;;;;;;9.90;7.80;;;;;;;24.41;51.07;99957.09;5070502;28;20194;-62
2023/06/18 09:23:13;;;;;;;8.40;7.53;;;;;;;24.41;51.08;99945.56;5057671;28;20510;-62
2023/06/18 09:25:39;;;;;;;12.90;7.47;;;;;;;24.42;51.16;99946.34;5083530;28;20182;-62
2023/06/18 09:28:04;;;;;;;11.10;8.10;;;;;;;24.42;50.53;99944.28;5070632;28;20175;-62
2023/06/18 09:30:30;;;;;;;13.87;8.10;;;;;;;24.42;50.91;99940.56;5089276;28;20163;-62
2023/06/18 09:32:59;;;;;;;9.53;7.93;;;;;;;24.41;50.88;99939.78;5077237;28;20231;-62
2023/06/18 09:35:25;;;;;;;8.77;7.63;;;;;;;24.42;50.66;99938.53;5070066;28;20190;-62
2023/06/18 09:37:50;;;;;;;9.97;8.00;;;;;;;24.42;51.28;99929.88;5084055;28;20455;-62
2023/06/18 09:40:16;;;;;;;9.73;7.70;;;;;;;24.41;51.41;99934.00;5087245;28;20205;-62
2023/06/18 09:42:42;;;;;;;8.83;7.60;;;;;;;24.43;51.36;99931.50;5071922;28;20190;-62
2023/06/18 09:45:08;;;;;;;8.60;7.10;;;;;;;24.43;51.37;99934.38;5069100;28;20240;-62
2023/06/18 09:47:33;;;;;;;7.50;6.80;;;;;;;24.44;51.24;99930.25;5053754;28;20463;-62
2023/06/18 09:49:59;;;;;;;10.37;7.27;;;;;;;24.45;51.21;99937.69;5079749;28;20490;-62
2023/06/18 09:52:26;;;;;;;8.27;7.30;;;;;;;24.45;51.16;99937.69;5083174;28;20187;-62
2023/06/18 09:54:51;;;;;;;8.53;7.10;;;;;;;24.46;51.32;99926.94;5066709;28;20187;-62
2023/06/18 09:57:17;;;;;;;10.10;7.93;;;;;;;24.45;51.31;99926.13;5088480;28;20404;-62
2023/06/18 09:59:42;;;;;;;8.73;7.40;;;;;;;24.45;51.09;99922.41;5075471;28;20233;-62
2023/06/18 10:02:13;;;;;;;13.83;7.83;;;;;;;24.46;51.47;99932.69;5070562;28;20600;-62
2023/06/18 10:04:38;;;;;;;8.63;7.47;;;;;;;24.44;51.51;99924.47;5067711;28;20168;-62
2023/06/18 10:07:05;;;;;;;8.53;7.47;;;;;;;24.45;51.47;99916.66;5070094;28;20512;-62
2023/06/18 10:09:37;;;;;;;8.70;7.70;;;;;;;24.46;51.46;99919.09;5041478;28;20210;-61
2023/06/18 10:12:04;;;;;;;8.10;6.60;;;;;;;24.46;51.02;99924.88;5053376;28;20409;-62
2023/06/18 10:14:30;;;;;;;8.57;7.50;;;;;;;24.45;51.22;99923.25;5088310;28;20975;-62
2023/06/18 10:17:07;;;;;;;8.30;6.83;;;;;;;24.46;51.37;99921.16;5081438;28;20436;-62
2023/06/18 10:19:56;;;;;;;9.00;7.13;;;;;;;24.46;51.02;99915.38;5073809;28;20474;-62
2023/06/18 10:22:21;;;;;;;9.90;8.17;;;;;;;24.47;50.77;99914.97;5068993;28;20453;-62
2023/06/18 10:24:56;;;;;;;9.10;7.20;;;;;;;24.47;51.02;99920.75;5061821;28;20420;-62
2023/06/18 10:27:21;;;;;;;8.93;7.27;;;;;;;24.47;50.58;99909.19;5054526;28;20178;-62
2023/06/18 10:29:47;;;;;;;9.23;7.40;;;;;;;24.47;50.58;99899.69;5071547;28;20416;-62
2023/06/18 10:32:12;;;;;;;9.10;7.73;;;;;;;24.48;50.25;99902.16;5090968;28;20541;-62
2023/06/18 10:34:39;;;;;;;9.27;7.30;;;;;;;24.48;50.35;99899.28;5079953;28;21020;-62
2023/06/18 10:37:04;;;;;;;12.10;7.50;;;;;;;24.50;50.09;99899.69;5081661;28;20186;-62
2023/06/18 10:39:30;;;;;;;8.40;6.77;;;;;;;24.49;50.02;99900.09;5072191;28;20994;-62
2023/06/18 10:41:56;;;;;;;11.37;7.50;;;;;;;24.49;49.92;99898.03;5086667;28;20179;-62
2023/06/18 10:44:47;;;;;;;10.77;7.33;;;;;;;24.49;49.38;99894.34;5052481;28;20560;-62
2023/06/18 10:47:23;;;;;;;10.17;7.43;;;;;;;24.49;49.06;99889.38;5074167;28;20333;-62
2023/06/18 10:50:01;;;;;;;16.57;7.97;;;;;;;24.50;48.85;99888.13;5055453;28;20463;-62
2023/06/18 10:52:29;;;;;;;13.93;7.00;;;;;;;24.52;48.90;99891.41;5085672;28;20524;-62
2023/06/18 10:54:57;;;;;;;8.47;7.57;;;;;;;24.50;48.83;99881.53;5088521;28;20436;-62
2023/06/18 10:57:27;;;;;;;10.50;7.03;;;;;;;24.51;48.95;99881.09;5074355;28;20497;-62
2023/06/18 10:59:52;;;;;;;7.30;6.50;;;;;;;24.52;48.29;99873.25;5049887;28;20512;-62
2023/06/18 11:02:32;;;;;;;8.13;6.80;;;;;;;24.52;48.56;99871.19;5051412;28;20422;-62
2023/06/18 11:04:58;;;;;;;9.47;7.53;;;;;;;24.50;48.83;99879.47;5070335;28;20187;-62
2023/06/18 11:07:23;;;;;;;7.80;7.00;;;;;;;24.50;48.46;99867.94;5049624;28;20465;-62
2023/06/18 11:09:58;;;;;;;7.87;5.97;;;;;;;24.51;48.82;99863.78;5065000;28;20659;-62
2023/06/18 11:12:31;;;;;;;8.63;6.80;;;;;;;24.51;48.88;99860.06;5070187;28;20182;-62
2023/06/18 11:15:17;;;;;;;9.23;6.27;;;;;;;24.50;49.13;99859.28;5070163;28;21225;-62
2023/06/18 11:17:53;;;;;;;12.00;7.80;;;;;;;24.52;49.05;99855.94;5075935;28;20460;-62
2023/06/18 11:20:22;;;;;;;9.20;6.67;;;;;;;24.51;48.98;99855.13;5056851;28;20914;-62
2023/06/18 11:22:47;;;;;;;8.87;5.83;;;;;;;24.52;48.73;99847.28;5066236;28;20434;-62
2023/06/18 11:25:14;;;;;;;12.80;6.43;;;;;;;24.52;48.21;99848.09;5058913;28;20434;-62
2023/06/18 11:27:40;;;;;;;7.30;6.00;;;;;;;24.53;48.65;99848.94;5050883;28;20187;-62